createdAt,value
2018-01-19T00:02:28.376Z,96655.53
2018-01-19T00:04:56.710Z,96657.31
2018-01-19T00:07:25.261Z,96660.30
2018-01-19T00:09:53.587Z,96659.82
2018-01-19T00:12:21.911Z,96651.02
2018-01-19T00:14:50.258Z,96649.38
2018-01-19T00:17:18.607Z,96651.48
2018-01-19T00:19:46.934Z,96653.98
2018-01-19T00:22:15.258Z,96651.47
2018-01-19T00:24:44.359Z,96649.77
2018-01-19T00:27:12.682Z,96651.89
2018-01-19T00:29:41.019Z,96654.79
2018-01-19T00:32:10.572Z,96653.52
2018-01-19T00:34:38.895Z,96654.40
2018-01-19T00:37:07.226Z,96658.63
2018-01-19T00:39:35.580Z,96655.31
2018-01-19T00:42:03.923Z,96658.26
2018-01-19T00:44:33.243Z,96658.69
2018-01-19T00:47:01.575Z,96657.42
2018-01-19T00:49:29.922Z,96655.33
2018-01-19T00:51:58.252Z,96656.58
2018-01-19T00:54:27.389Z,96661.22
2018-01-19T00:56:55.730Z,96660.38
2018-01-19T00:59:24.055Z,96664.17
2018-01-19T01:01:52.416Z,96653.17
2018-01-19T01:04:20.726Z,96657.40
2018-01-19T01:06:49.068Z,96658.65
2018-01-19T01:09:17.412Z,96670.84
2018-01-19T01:11:46.523Z,96670.39
2018-01-19T01:14:14.857Z,96668.76
2018-01-19T01:16:43.950Z,96669.21
2018-01-19T01:19:12.296Z,96669.23
2018-01-19T01:21:40.630Z,96670.92
2018-01-19T01:24:09.757Z,96671.36
2018-01-19T01:26:38.081Z,96670.52
2018-01-19T01:29:07.374Z,96668.84
2018-01-19T01:31:35.719Z,96672.63
2018-01-19T01:34:04.038Z,96676.42
2018-01-19T01:36:32.369Z,96681.06
2018-01-19T01:39:00.705Z,96681.91
2018-01-19T01:41:29.074Z,96686.55
2018-01-19T01:43:57.441Z,96683.61
2018-01-19T01:46:25.758Z,96686.55
2018-01-19T01:49:12.080Z,96684.02
2018-01-19T01:51:40.462Z,96684.86
2018-01-19T01:54:08.790Z,96680.64
2018-01-19T01:56:37.114Z,96682.76
2018-01-19T01:59:05.435Z,96688.25
2018-01-19T02:01:33.766Z,96681.91
2018-01-19T02:04:02.099Z,96684.84
2018-01-19T02:06:30.429Z,96689.06
2018-01-19T02:08:58.759Z,96684.86
2018-01-19T02:11:27.092Z,96686.52
2018-01-19T02:13:55.442Z,96682.73
2018-01-19T02:16:23.789Z,96683.58
2018-01-19T02:18:52.124Z,96681.02
2018-01-19T02:21:20.484Z,96681.86
2018-01-19T02:23:48.833Z,96683.58
2018-01-19T02:26:17.943Z,96682.30
2018-01-19T02:28:46.283Z,96686.50
2018-01-19T02:31:14.633Z,96683.13
2018-01-19T02:33:42.984Z,96685.25
2018-01-19T02:36:11.318Z,96689.50
2018-01-19T02:38:39.690Z,96691.19
2018-01-19T02:41:08.448Z,96689.50
2018-01-19T02:43:36.776Z,96692.05
2018-01-19T02:46:05.880Z,96689.52
2018-01-19T02:48:34.214Z,96688.23
2018-01-19T02:51:02.531Z,96692.88
2018-01-19T02:53:31.633Z,96693.31
2018-01-19T02:55:59.975Z,96698.78
2018-01-19T02:58:28.316Z,96696.26
2018-01-19T03:00:56.640Z,96695.84
2018-01-19T03:03:24.972Z,96692.89
2018-01-19T03:05:54.066Z,96691.19
2018-01-19T03:08:22.377Z,96690.34
2018-01-19T03:10:51.980Z,96696.64
2018-01-19T03:13:20.329Z,96698.78
2018-01-19T03:15:48.678Z,96698.77
2018-01-19T03:18:17.028Z,96703.83
2018-01-19T03:20:45.379Z,96704.25
2018-01-19T03:23:13.718Z,96705.05
2018-01-19T03:25:42.049Z,96713.06
2018-01-19T03:28:10.420Z,96719.00
2018-01-19T03:30:38.810Z,96720.27
2018-01-19T03:33:08.284Z,96717.30
2018-01-19T03:35:36.606Z,96716.08
2018-01-19T03:38:04.939Z,96721.56
2018-01-19T03:40:33.280Z,96719.44
2018-01-19T03:43:01.610Z,96717.35
2018-01-19T03:45:29.983Z,96722.00
2018-01-19T03:47:58.314Z,96716.50
2018-01-19T03:50:27.400Z,96727.49
2018-01-19T03:52:56.490Z,96722.02
2018-01-19T03:55:24.817Z,96720.75
2018-01-19T03:57:53.153Z,96722.02
2018-01-19T04:00:22.245Z,96721.99
2018-01-19T04:02:50.600Z,96717.36
2018-01-19T04:05:18.944Z,96722.42
2018-01-19T04:07:48.005Z,96727.92
2018-01-19T04:10:16.330Z,96732.09
2018-01-19T04:12:44.709Z,96729.98
2018-01-19T04:15:13.062Z,96734.51
2018-01-19T04:17:41.412Z,96732.88
2018-01-19T04:20:09.744Z,96732.88
2018-01-19T04:22:38.075Z,96729.53
2018-01-19T04:25:07.176Z,96739.63
2018-01-19T04:27:35.499Z,96737.88
2018-01-19T04:30:03.820Z,96745.55
2018-01-19T04:32:32.924Z,96749.77
2018-01-19T04:35:01.238Z,96746.83
2018-01-19T04:37:29.580Z,96749.70
2018-01-19T04:40:03.892Z,96752.31
2018-01-19T04:42:32.246Z,96745.13
2018-01-19T04:45:00.572Z,96756.15
2018-01-19T04:47:28.904Z,96758.22
2018-01-19T04:49:57.219Z,96759.09
2018-01-19T04:52:25.537Z,96762.46
2018-01-19T04:54:54.060Z,96760.30
2018-01-19T04:57:23.926Z,96761.55
2018-01-19T04:59:52.265Z,96761.54
2018-01-19T05:02:20.804Z,96764.45
2018-01-19T05:04:49.144Z,96768.66
2018-01-19T05:07:17.457Z,96774.18
2018-01-19T05:09:45.778Z,96777.07
2018-01-19T05:12:14.627Z,96773.31
2018-01-19T05:14:42.968Z,96777.50
2018-01-19T05:17:11.300Z,96781.73
2018-01-19T05:19:40.404Z,96786.30
2018-01-19T05:22:08.731Z,96791.31
2018-01-19T05:24:37.846Z,96791.83
2018-01-19T05:27:06.166Z,96792.21
2018-01-19T05:29:34.512Z,96792.20
2018-01-19T05:32:02.861Z,96797.66
2018-01-19T05:34:31.169Z,96794.83
2018-01-19T05:36:59.500Z,96796.53
2018-01-19T05:39:27.828Z,96783.95
2018-01-19T05:41:56.919Z,96788.66
2018-01-19T05:44:26.067Z,96733.76
2018-01-19T05:46:54.386Z,96784.41
2018-01-19T05:49:22.749Z,96789.47
2018-01-19T05:51:51.070Z,96794.98
2018-01-19T05:54:19.417Z,96792.45
2018-01-19T05:56:47.739Z,96797.05
2018-01-19T05:59:16.075Z,96792.05
2018-01-19T06:01:45.179Z,96797.93
2018-01-19T06:04:14.940Z,96792.44
2018-01-19T06:06:43.357Z,96805.38
2018-01-19T06:09:11.685Z,96812.16
2018-01-19T06:11:40.018Z,96821.02
2018-01-19T06:14:08.377Z,96821.48
2018-01-19T06:16:36.694Z,96821.48
2018-01-19T06:19:06.746Z,96826.06
2018-01-19T06:21:35.077Z,96828.68
2018-01-19T06:24:03.406Z,96834.95
2018-01-19T06:26:31.696Z,96835.86
2018-01-19T06:29:00.028Z,96835.83
2018-01-19T06:31:28.372Z,96840.51
2018-01-19T06:33:56.695Z,96844.75
2018-01-19T06:36:25.033Z,96851.47
2018-01-19T06:38:53.382Z,96855.63
2018-01-19T06:41:21.723Z,96850.59
2018-01-19T06:43:50.077Z,96856.00
2018-01-19T06:46:19.172Z,96858.63
2018-01-19T06:48:47.516Z,96861.11
2018-01-19T06:51:16.975Z,96866.65
2018-01-19T06:53:45.307Z,96871.70
2018-01-19T06:56:13.677Z,96863.28
2018-01-19T06:58:42.022Z,96875.96
2018-01-19T07:01:10.365Z,96884.43
2018-01-19T07:03:38.716Z,96886.55
2018-01-19T07:06:07.056Z,96897.02
2018-01-19T07:08:35.374Z,96893.67
2018-01-19T07:11:03.703Z,96905.02
2018-01-19T07:13:32.031Z,96911.81
2018-01-19T07:16:00.356Z,96917.99
2018-01-19T07:18:28.673Z,96923.20
2018-01-19T07:20:57.021Z,96918.92
2018-01-19T07:23:25.353Z,96929.47
2018-01-19T07:25:54.442Z,96934.84
2018-01-19T07:28:22.779Z,96933.58
2018-01-19T07:30:51.114Z,96941.54
2018-01-19T07:33:20.250Z,96947.56
2018-01-19T07:35:48.571Z,96948.03
2018-01-19T07:38:16.922Z,96954.75
2018-01-19T07:40:45.247Z,96955.59
2018-01-19T07:43:14.365Z,96959.13
2018-01-19T07:45:42.707Z,96963.72
2018-01-19T07:48:11.053Z,96966.75
2018-01-19T07:50:39.371Z,96972.26
2018-01-19T07:53:08.532Z,96974.37
2018-01-19T07:55:36.873Z,96988.31
2018-01-19T07:58:05.210Z,96993.34
2018-01-19T08:00:34.325Z,96997.94
2018-01-19T08:03:02.661Z,97004.73
2018-01-19T08:05:31.026Z,97006.05
2018-01-19T08:07:59.554Z,97011.16
2018-01-19T08:10:28.638Z,97016.17
2018-01-19T08:12:56.970Z,97021.19
2018-01-19T08:15:25.278Z,97023.70
2018-01-19T08:17:53.614Z,97024.50
2018-01-19T08:20:21.938Z,97035.45
2018-01-19T08:22:50.278Z,97033.03
2018-01-19T08:25:18.602Z,97038.09
2018-01-19T08:27:48.659Z,97035.61
2018-01-19T08:30:16.990Z,97039.71
2018-01-19T08:32:45.335Z,97043.16
2018-01-19T08:35:13.676Z,97049.94
2018-01-19T08:37:42.009Z,97055.45
2018-01-19T08:40:10.356Z,97060.94
2018-01-19T08:42:38.682Z,97060.78
2018-01-19T08:45:07.801Z,97065.48
2018-01-19T08:47:36.132Z,97073.92
2018-01-19T08:50:04.450Z,97076.92
2018-01-19T08:52:33.547Z,97079.45
2018-01-19T08:55:01.867Z,97086.58
2018-01-19T08:57:32.200Z,97083.63
2018-01-19T09:00:00.532Z,97091.25
2018-01-19T09:02:28.861Z,97093.41
2018-01-19T09:04:57.226Z,97099.00
2018-01-19T09:07:25.541Z,97101.40
2018-01-19T09:09:54.840Z,97110.29
2018-01-19T09:12:23.162Z,97115.22
2018-01-19T09:14:51.502Z,97118.63
2018-01-19T09:17:19.822Z,97128.30
2018-01-19T09:19:48.214Z,97128.04
2018-01-19T09:22:16.544Z,97130.77
2018-01-19T09:24:44.875Z,97140.11
2018-01-19T09:27:14.077Z,97144.42
2018-01-19T09:29:42.454Z,97144.33
2018-01-19T09:32:10.789Z,97141.98
2018-01-19T09:34:39.129Z,97144.53
2018-01-19T09:37:07.446Z,97148.83
2018-01-19T09:39:35.761Z,97153.59
2018-01-19T09:42:04.101Z,97157.45
2018-01-19T09:44:32.426Z,97171.72
2018-01-19T09:47:00.769Z,97172.51
2018-01-19T09:49:29.110Z,97174.33
2018-01-19T09:51:57.442Z,97181.45
2018-01-19T09:54:25.777Z,97179.31
2018-01-19T09:56:54.109Z,97185.70
2018-01-19T09:59:22.461Z,97192.12
2018-01-19T10:01:50.810Z,97196.41
2018-01-19T10:04:19.913Z,97193.96
2018-01-19T10:06:48.315Z,97197.41
2018-01-19T10:09:16.656Z,97204.59
2018-01-19T10:11:44.982Z,97199.96
2018-01-19T10:14:13.317Z,97198.70
2018-01-19T10:16:42.416Z,97196.14
2018-01-19T10:19:10.756Z,97195.36
2018-01-19T10:21:39.090Z,97195.50
2018-01-19T10:24:07.416Z,97193.65
2018-01-19T10:26:35.748Z,97199.14
2018-01-19T10:29:04.100Z,97203.37
2018-01-19T10:31:32.433Z,97203.45
2018-01-19T10:34:00.784Z,97207.31
2018-01-19T10:36:29.125Z,97210.72
2018-01-19T10:38:57.465Z,97212.03
2018-01-19T10:41:25.786Z,97220.91
2018-01-19T10:43:54.888Z,97222.17
2018-01-19T10:46:23.221Z,97219.95
2018-01-19T10:48:51.551Z,97219.55
2018-01-19T10:51:19.884Z,97222.51
2018-01-19T10:53:48.218Z,97222.53
2018-01-19T10:56:16.553Z,97215.75
2018-01-19T10:58:44.899Z,97218.70
2018-01-19T11:01:13.234Z,97223.77
2018-01-19T11:03:41.548Z,97225.06
2018-01-19T11:06:09.866Z,97221.23
2018-01-19T11:08:38.963Z,97237.69
2018-01-19T11:11:07.284Z,97239.23
2018-01-19T11:13:35.606Z,97243.80
2018-01-19T11:16:03.930Z,97247.00
2018-01-19T11:18:32.327Z,97253.94
2018-01-19T11:21:00.652Z,97251.70
2018-01-19T11:23:29.000Z,97255.61
2018-01-19T11:25:57.327Z,97252.23
2018-01-19T11:28:25.673Z,97252.75
2018-01-19T11:30:54.020Z,97254.06
2018-01-19T11:33:22.356Z,97252.30
2018-01-19T11:35:50.671Z,97248.97
2018-01-19T11:38:19.010Z,97246.50
2018-01-19T11:40:48.447Z,97249.41
2018-01-19T11:43:16.813Z,97252.84
2018-01-19T11:45:45.139Z,97257.05
2018-01-19T11:48:13.843Z,97268.91
2018-01-19T11:50:42.944Z,97266.41
2018-01-19T11:53:11.266Z,97264.59
2018-01-19T11:55:39.589Z,97261.69
2018-01-19T11:58:08.666Z,97256.59
2018-01-19T12:00:36.989Z,97254.66
2018-01-19T12:03:05.336Z,97252.97
2018-01-19T12:05:34.438Z,97255.13
2018-01-19T12:08:03.530Z,97259.41
2018-01-19T12:10:31.859Z,97263.27
2018-01-19T12:13:00.237Z,97261.09
2018-01-19T12:15:28.688Z,97259.39
2018-01-19T12:17:57.032Z,97259.02
2018-01-19T12:20:25.364Z,97255.52
2018-01-19T12:22:53.680Z,97248.78
2018-01-19T12:25:21.994Z,97249.16
2018-01-19T12:27:50.337Z,97252.08
2018-01-19T12:30:18.650Z,97261.23
2018-01-19T12:32:47.230Z,97264.91
2018-01-19T12:35:15.578Z,97259.46
2018-01-19T12:37:43.900Z,97258.30
2018-01-19T12:40:12.222Z,97260.41
2018-01-19T12:42:40.555Z,97263.41
2018-01-19T12:45:08.878Z,97265.92
2018-01-19T12:47:37.205Z,97260.60
2018-01-19T12:50:05.527Z,97257.67
2018-01-19T12:52:33.866Z,97255.31
2018-01-19T12:55:02.193Z,97262.89
2018-01-19T12:57:30.520Z,97259.89
2018-01-19T12:59:58.855Z,97264.95
2018-01-19T13:02:27.175Z,97266.72
2018-01-19T13:04:55.633Z,97256.97
2018-01-19T13:07:23.954Z,97261.23
2018-01-19T13:09:52.308Z,97258.22
2018-01-19T13:12:20.644Z,97255.33
2018-01-19T13:14:48.967Z,97255.23
2018-01-19T13:17:17.282Z,97252.77
2018-01-19T13:19:45.630Z,97257.83
2018-01-19T13:22:13.966Z,97254.41
2018-01-19T13:24:42.312Z,97251.55
2018-01-19T13:27:11.580Z,97253.17
2018-01-19T13:29:39.912Z,97249.87
2018-01-19T13:32:08.255Z,97245.48
2018-01-19T13:34:36.609Z,97246.41
2018-01-19T13:37:04.939Z,97247.33
2018-01-19T13:39:34.040Z,97243.53
2018-01-19T13:42:02.378Z,97232.09
2018-01-19T13:44:30.716Z,97240.13
2018-01-19T13:46:59.049Z,97241.38
2018-01-19T13:49:27.393Z,97244.30
2018-01-19T13:51:56.521Z,97247.27
2018-01-19T13:54:24.872Z,97249.33
2018-01-19T13:56:53.204Z,97252.16
2018-01-19T13:59:22.304Z,97253.93
2018-01-19T14:01:50.621Z,97258.95
2018-01-19T14:04:18.961Z,97268.62
2018-01-19T14:06:48.100Z,97267.81
2018-01-19T14:09:16.390Z,97275.69
2018-01-19T14:11:51.312Z,97275.95
2018-01-19T14:14:19.647Z,97280.28
2018-01-19T14:16:47.971Z,97287.48
2018-01-19T14:19:16.298Z,97286.23
2018-01-19T14:21:45.396Z,97294.05
2018-01-19T14:24:13.741Z,97291.77
2018-01-19T14:26:42.702Z,97294.72
2018-01-19T14:29:11.022Z,97292.86
2018-01-19T14:31:40.389Z,97287.32
2018-01-19T14:34:08.763Z,97286.61
2018-01-19T14:36:37.076Z,97285.50
2018-01-19T14:39:06.242Z,97279.98
2018-01-19T14:41:34.562Z,97282.51
2018-01-19T14:44:02.893Z,97283.33
2018-01-19T14:46:31.251Z,97282.03
2018-01-19T14:49:00.328Z,97280.28
2018-01-19T14:51:28.658Z,97287.52
2018-01-19T14:53:57.016Z,97290.89
2018-01-19T14:56:25.740Z,97290.56
2018-01-19T14:58:54.076Z,97298.05
2018-01-19T15:01:22.418Z,97302.30
2018-01-19T15:03:51.540Z,97303.63
2018-01-19T15:06:19.876Z,97309.31
2018-01-19T15:08:48.222Z,97310.36
2018-01-19T15:11:16.560Z,97307.41
2018-01-19T15:13:44.879Z,97305.80
2018-01-19T15:16:13.202Z,97304.15
2018-01-19T15:18:42.289Z,97315.68
2018-01-19T15:21:11.399Z,97318.63
2018-01-19T15:23:39.722Z,97321.55
2018-01-19T15:26:08.037Z,97315.73
2018-01-19T15:28:38.628Z,97303.75
2018-01-19T15:31:06.943Z,97313.58
2018-01-19T15:33:36.047Z,97315.13
2018-01-19T15:36:04.358Z,97318.37
2018-01-19T15:38:32.787Z,97304.20
2018-01-19T15:41:01.134Z,97294.69
2018-01-19T15:43:29.477Z,97295.42
2018-01-19T15:45:57.804Z,97296.82
2018-01-19T15:48:26.122Z,97304.73
2018-01-19T15:50:54.428Z,97295.01
2018-01-19T15:53:22.773Z,97302.77
2018-01-19T15:55:51.084Z,97299.48
2018-01-19T15:58:19.398Z,97289.61
2018-01-19T16:00:47.753Z,97282.06
2018-01-19T16:03:16.562Z,97287.63
2018-01-19T16:05:44.887Z,97291.62
2018-01-19T16:08:13.245Z,97288.90
2018-01-19T16:10:42.370Z,97291.55
2018-01-19T16:13:10.720Z,97286.79
2018-01-19T16:15:39.048Z,97283.19
2018-01-19T16:18:07.380Z,97277.51
2018-01-19T16:20:36.479Z,97287.21
2018-01-19T16:23:04.872Z,97284.30
2018-01-19T16:25:33.225Z,97283.08
2018-01-19T16:28:01.563Z,97275.35
2018-01-19T16:30:29.894Z,97276.67
2018-01-19T16:32:58.559Z,97278.44
2018-01-19T16:35:27.661Z,97282.82
2018-01-19T16:37:56.015Z,97278.60
2018-01-19T16:40:24.414Z,97274.55
2018-01-19T16:42:52.776Z,97272.11
2018-01-19T16:45:21.106Z,97268.34
2018-01-19T16:47:49.430Z,97269.27
2018-01-19T16:50:17.816Z,97265.47
2018-01-19T16:52:47.462Z,97270.45
2018-01-19T16:55:16.329Z,97265.66
2018-01-19T16:57:45.326Z,97273.70
2018-01-19T17:00:13.735Z,97274.77
2018-01-19T17:02:42.130Z,97276.59
2018-01-19T17:05:10.463Z,97272.98
2018-01-19T17:07:38.819Z,97274.91
2018-01-19T17:10:07.181Z,97275.05
2018-01-19T17:12:35.517Z,97275.14
2018-01-19T17:15:04.030Z,97278.22
2018-01-19T17:17:32.405Z,97274.68
2018-01-19T17:20:00.766Z,97275.69
2018-01-19T17:22:29.413Z,97279.16
2018-01-19T17:24:57.828Z,97278.69
2018-01-19T17:27:26.419Z,97282.44
2018-01-19T17:29:54.830Z,97278.05
2018-01-19T17:32:23.269Z,97285.68
2018-01-19T17:34:51.625Z,97282.69
2018-01-19T17:37:20.603Z,97275.38
2018-01-19T17:39:49.078Z,97285.88
2018-01-19T17:42:17.548Z,97285.77
2018-01-19T17:44:46.770Z,97288.88
2018-01-19T17:47:16.219Z,97291.92
2018-01-19T17:49:44.650Z,97296.13
2018-01-19T17:52:14.529Z,97300.86
2018-01-19T17:54:42.983Z,97295.14
2018-01-19T17:57:11.578Z,97296.64
2018-01-19T17:59:40.335Z,97294.16
2018-01-19T18:02:09.200Z,97299.78
2018-01-19T18:04:38.633Z,97296.84
2018-01-19T18:07:07.325Z,97298.58
2018-01-19T18:09:36.194Z,97296.52
2018-01-19T18:12:05.215Z,97293.22
2018-01-19T18:14:34.862Z,97298.19
2018-01-19T18:17:04.570Z,97303.63
2018-01-19T18:19:34.128Z,97298.00
2018-01-19T18:22:03.840Z,97299.69
2018-01-19T18:24:33.797Z,97298.75
2018-01-19T18:27:04.293Z,97301.66
2018-01-19T18:29:34.118Z,97271.09
2018-01-19T18:32:03.927Z,97311.53
2018-01-19T18:34:33.761Z,97308.39
2018-01-19T18:37:03.532Z,97305.32
2018-01-19T18:39:33.365Z,97298.23
2018-01-19T18:42:03.161Z,97299.14
2018-01-19T18:44:33.017Z,97301.00
2018-01-19T18:47:02.883Z,97302.09
2018-01-19T18:49:37.945Z,97298.46
2018-01-19T18:52:07.800Z,97301.53
2018-01-19T18:54:38.427Z,97299.54
2018-01-19T18:57:08.351Z,97297.48
2018-01-19T18:59:39.042Z,97298.76
2018-01-19T19:02:08.845Z,97299.22
2018-01-19T19:04:38.856Z,97299.11
2018-01-19T19:07:08.645Z,97305.38
2018-01-19T19:09:39.356Z,97302.31
2018-01-19T19:12:09.408Z,97305.73
2018-01-19T19:14:39.302Z,97307.48
2018-01-19T19:17:09.900Z,97305.43
2018-01-19T19:19:39.856Z,97302.96
2018-01-19T19:22:10.537Z,97299.95
2018-01-19T19:24:40.459Z,97300.68
2018-01-19T19:27:10.592Z,97308.73
2018-01-19T19:29:40.535Z,97310.38
2018-01-19T19:32:10.549Z,97313.33
2018-01-19T19:34:42.150Z,97318.20
2018-01-19T19:37:12.055Z,97308.33
2018-01-19T19:39:41.861Z,97307.59
2018-01-19T19:42:12.169Z,97313.59
2018-01-19T19:44:42.073Z,97310.37
2018-01-19T19:47:13.133Z,97312.75
2018-01-19T19:49:43.176Z,97309.87
2018-01-19T19:52:13.967Z,97304.85
2018-01-19T19:54:45.002Z,97316.23
2018-01-19T19:57:15.666Z,97315.67
2018-01-19T19:59:45.510Z,97315.07
2018-01-19T20:02:15.424Z,97318.98
2018-01-19T20:04:45.234Z,97324.92
2018-01-19T20:07:15.490Z,97314.28
2018-01-19T20:09:47.110Z,97310.28
2018-01-19T20:12:17.062Z,97305.37
2018-01-19T20:14:47.979Z,97304.75
2018-01-19T20:17:17.882Z,97315.73
2018-01-19T20:19:47.865Z,97310.42
2018-01-19T20:22:17.890Z,97311.01
2018-01-19T20:24:47.867Z,97314.98
2018-01-19T20:27:18.319Z,97316.77
2018-01-19T20:29:48.206Z,97330.42
2018-01-19T20:32:18.893Z,97321.19
2018-01-19T20:34:48.715Z,97321.66
2018-01-19T20:37:18.606Z,97323.14
2018-01-19T20:39:48.504Z,97322.59
2018-01-19T20:42:18.971Z,97321.11
2018-01-19T20:44:48.865Z,97325.83
2018-01-19T20:47:19.504Z,97319.14
2018-01-19T20:49:49.436Z,97317.48
2018-01-19T20:52:19.268Z,97318.66
2018-01-19T20:54:49.261Z,97315.63
2018-01-19T20:57:19.222Z,97310.56
2018-01-19T20:59:49.211Z,97314.78
2018-01-19T21:02:19.068Z,97316.75
2018-01-19T21:04:48.921Z,97315.43
2018-01-19T21:07:19.200Z,97307.80
2018-01-19T21:09:49.089Z,97304.89
2018-01-19T21:12:18.982Z,97307.14
2018-01-19T21:14:48.811Z,97305.13
2018-01-19T21:17:19.431Z,97299.64
2018-01-19T21:19:49.287Z,97300.77
2018-01-19T21:22:19.275Z,97301.81
2018-01-19T21:24:49.175Z,97300.55
2018-01-19T21:27:19.142Z,97302.84
2018-01-19T21:29:49.094Z,97301.34
2018-01-19T21:32:18.945Z,97309.92
2018-01-19T21:34:51.643Z,97312.50
2018-01-19T21:37:21.514Z,97311.56
2018-01-19T21:39:51.439Z,97314.22
2018-01-19T21:42:21.318Z,97315.86
2018-01-19T21:44:51.187Z,97310.92
2018-01-19T21:47:21.085Z,97316.88
2018-01-19T21:49:50.987Z,97305.66
2018-01-19T21:52:20.856Z,97304.45
2018-01-19T21:54:50.695Z,97309.08
2018-01-19T21:57:20.818Z,97306.22
2018-01-19T21:59:50.800Z,97316.39
2018-01-19T22:02:20.713Z,97314.87
2018-01-19T22:04:50.513Z,97308.23
2018-01-19T22:07:20.471Z,97310.87
2018-01-19T22:09:50.184Z,97307.96
2018-01-19T22:12:20.088Z,97313.30
2018-01-19T22:14:50.109Z,97322.81
2018-01-19T22:17:20.048Z,97315.70
2018-01-19T22:19:50.037Z,97327.75
2018-01-19T22:22:19.936Z,97329.27
2018-01-19T22:24:49.780Z,97324.23
2018-01-19T22:27:19.558Z,97331.98
2018-01-19T22:29:49.366Z,97332.51
2018-01-19T22:32:19.173Z,97339.81
2018-01-19T22:34:48.950Z,97339.63
2018-01-19T22:37:18.774Z,97337.57
2018-01-19T22:39:48.397Z,97325.84
2018-01-19T22:42:18.131Z,97330.28
2018-01-19T22:44:47.992Z,97333.93
2018-01-19T22:47:17.517Z,97338.71
2018-01-19T22:49:46.034Z,97340.09
2018-01-19T22:52:14.447Z,97351.88
2018-01-19T22:54:42.836Z,97336.61
2018-01-19T22:57:11.183Z,97336.52
2018-01-19T22:59:39.551Z,97345.73
2018-01-19T23:02:07.877Z,97348.79
2018-01-19T23:04:36.241Z,97343.42
2018-01-19T23:07:05.480Z,97348.01
2018-01-19T23:09:33.853Z,97345.02
2018-01-19T23:12:02.171Z,97340.42
2018-01-19T23:14:31.270Z,97347.96
2018-01-19T23:16:59.633Z,97349.75
2018-01-19T23:19:27.949Z,97346.38
2018-01-19T23:21:57.018Z,97343.38
2018-01-19T23:24:25.326Z,97341.27
2018-01-19T23:26:53.627Z,97332.30
2018-01-19T23:29:21.935Z,97326.45
2018-01-19T23:31:50.232Z,97325.61
2018-01-19T23:34:18.546Z,97322.19
2018-01-19T23:36:47.475Z,97328.38
2018-01-19T23:39:15.818Z,97324.33
2018-01-19T23:41:44.140Z,97319.94
2018-01-19T23:44:12.470Z,97320.61
2018-01-19T23:46:41.851Z,97322.11
2018-01-19T23:49:10.169Z,97327.52
2018-01-19T23:51:38.501Z,97320.32
2018-01-19T23:54:06.831Z,97325.89
2018-01-19T23:56:35.157Z,97330.12
2018-01-19T23:59:04.254Z,97323.45
